createdAt,value
2023-02-03T00:01:53.735Z,22.25
2023-02-03T00:04:29.900Z,16.30
2023-02-03T00:07:04.216Z,12.80
2023-02-03T00:09:33.196Z,12.60
2023-02-03T00:12:06.160Z,14.88
2023-02-03T00:14:42.737Z,15.32
2023-02-03T00:17:21.621Z,16.77
2023-02-03T00:19:48.436Z,15.75
2023-02-03T00:22:14.936Z,14.00
2023-02-03T00:24:46.956Z,15.43
2023-02-03T00:29:45.066Z,16.40
2023-02-03T00:32:17.932Z,19.60
2023-02-03T00:34:47.655Z,20.98
2023-02-03T00:37:16.461Z,21.45
2023-02-03T00:39:46.075Z,18.23
2023-02-03T00:42:19.975Z,22.45
2023-02-03T00:44:46.704Z,22.63
2023-02-03T00:47:18.140Z,27.85
2023-02-03T00:49:47.163Z,40.63
2023-02-03T00:52:21.383Z,25.73
2023-02-03T00:54:48.332Z,19.08
2023-02-03T00:57:19.587Z,22.75
2023-02-03T00:59:46.304Z,22.30
2023-02-03T01:02:42.088Z,13.85
2023-02-03T01:05:08.898Z,18.08
2023-02-03T01:07:37.054Z,12.13
2023-02-03T01:10:10.403Z,13.95
2023-02-03T01:12:37.246Z,16.63
2023-02-03T01:15:04.434Z,11.82
2023-02-03T01:17:38.735Z,14.82
2023-02-03T01:20:17.466Z,14.05
2023-02-03T01:22:48.007Z,15.88
2023-02-03T01:25:14.468Z,14.30
2023-02-03T01:27:46.966Z,20.88
2023-02-03T01:30:16.872Z,17.13
2023-02-03T01:32:50.671Z,18.02
2023-02-03T01:35:22.082Z,15.50
2023-02-03T01:37:48.670Z,17.13
2023-02-03T01:40:15.232Z,15.10
2023-02-03T01:42:41.694Z,18.52
2023-02-03T01:45:13.554Z,15.80
2023-02-03T01:50:29.190Z,19.48
2023-02-03T01:53:05.388Z,17.07
2023-02-03T01:55:39.941Z,17.50
2023-02-03T01:58:20.249Z,16.08
2023-02-03T02:01:05.619Z,19.70
2023-02-03T02:03:43.165Z,18.10
2023-02-03T02:06:12.819Z,17.30
2023-02-03T02:08:42.318Z,20.50
2023-02-03T02:11:09.277Z,18.58
2023-02-03T02:13:36.794Z,19.83
2023-02-03T02:16:15.344Z,27.27
2023-02-03T02:18:47.855Z,16.35
2023-02-03T02:21:43.106Z,12.50
2023-02-03T02:24:34.644Z,16.40
2023-02-03T02:27:15.253Z,23.30
2023-02-03T02:30:21.854Z,18.05
2023-02-03T02:32:53.632Z,17.75
2023-02-03T02:35:42.217Z,15.38
2023-02-03T02:38:21.424Z,14.77
2023-02-03T02:40:56.477Z,14.15
2023-02-03T02:43:26.809Z,18.85
2023-02-03T02:46:06.871Z,15.48
2023-02-03T02:48:44.680Z,19.02
2023-02-03T02:51:14.212Z,19.05
2023-02-03T02:53:46.881Z,12.73
2023-02-03T02:56:20.795Z,13.65
2023-02-03T02:58:51.917Z,15.95
2023-02-03T03:01:19.453Z,13.27
2023-02-03T03:03:47.165Z,15.57
2023-02-03T03:06:27.586Z,14.63
2023-02-03T03:09:03.910Z,15.05
2023-02-03T03:11:36.557Z,18.33
2023-02-03T03:14:05.388Z,16.25
2023-02-03T03:16:39.801Z,10.15
2023-02-03T03:19:20.290Z,18.08
2023-02-03T03:21:57.610Z,15.13
2023-02-03T03:24:42.101Z,21.30
2023-02-03T03:27:22.988Z,12.20
2023-02-03T03:30:00.770Z,16.92
2023-02-03T03:32:33.050Z,16.90
2023-02-03T03:35:04.751Z,20.08
2023-02-03T03:38:15.231Z,18.73
2023-02-03T03:40:49.803Z,17.02
2023-02-03T03:43:22.203Z,16.20
2023-02-03T03:46:01.743Z,18.05
2023-02-03T03:48:48.573Z,17.92
2023-02-03T03:51:39.617Z,17.80
2023-02-03T03:54:10.260Z,19.48
2023-02-03T03:56:53.853Z,20.15
2023-02-03T03:59:24.886Z,15.75
2023-02-03T04:01:55.481Z,22.67
2023-02-03T04:04:26.259Z,16.40
2023-02-03T04:07:13.524Z,24.27
2023-02-03T04:09:42.974Z,22.27
2023-02-03T04:12:29.655Z,15.43
2023-02-03T04:14:59.866Z,21.60
2023-02-03T04:17:29.879Z,20.38
2023-02-03T04:19:56.657Z,19.50
2023-02-03T04:22:23.164Z,22.30
2023-02-03T04:24:52.676Z,21.13
2023-02-03T04:27:22.412Z,22.25
2023-02-03T04:29:52.057Z,28.65
2023-02-03T04:32:19.092Z,21.45
2023-02-03T04:34:46.385Z,24.42
2023-02-03T04:37:22.341Z,25.52
2023-02-03T04:39:57.694Z,22.50
2023-02-03T04:42:24.924Z,21.25
2023-02-03T04:44:54.245Z,26.50
2023-02-03T04:47:21.989Z,18.40
2023-02-03T04:49:56.579Z,18.25
2023-02-03T04:52:34.691Z,22.88
2023-02-03T04:55:18.147Z,25.33
2023-02-03T04:57:51.967Z,22.75
2023-02-03T05:00:18.900Z,26.70
2023-02-03T05:02:49.198Z,19.40
2023-02-03T05:05:17.176Z,21.65
2023-02-03T05:07:53.527Z,30.15
2023-02-03T05:10:22.933Z,20.40
2023-02-03T05:12:49.945Z,25.30
2023-02-03T05:15:16.769Z,20.20
2023-02-03T05:17:43.343Z,22.00
2023-02-03T05:20:11.103Z,22.23
2023-02-03T05:22:41.319Z,18.42
2023-02-03T05:25:17.471Z,18.85
2023-02-03T05:27:44.658Z,21.65
2023-02-03T05:30:11.941Z,19.13
2023-02-03T05:35:25.840Z,20.95
2023-02-03T05:38:00.220Z,25.35
2023-02-03T05:40:46.585Z,17.77
2023-02-03T05:43:23.200Z,19.08
2023-02-03T05:45:52.586Z,28.02
2023-02-03T05:48:20.668Z,23.00
2023-02-03T05:50:52.210Z,26.80
2023-02-03T05:53:19.743Z,19.60
2023-02-03T05:55:51.023Z,21.98
2023-02-03T05:58:26.950Z,34.30
2023-02-03T06:00:58.909Z,29.35
2023-02-03T06:03:31.933Z,29.08
2023-02-03T06:06:00.474Z,38.53
2023-02-03T06:08:28.749Z,24.30
2023-02-03T06:11:00.706Z,23.05
2023-02-03T06:13:30.661Z,21.75
2023-02-03T06:18:53.515Z,25.70
2023-02-03T06:21:25.878Z,26.52
2023-02-03T06:23:52.715Z,34.60
2023-02-03T06:26:21.474Z,23.00
2023-02-03T06:28:52.035Z,24.17
2023-02-03T06:31:19.780Z,28.42
2023-02-03T06:33:53.725Z,22.90
2023-02-03T06:36:45.698Z,23.35
2023-02-03T06:43:08.107Z,29.58
2023-02-03T06:48:14.386Z,32.72
2023-02-03T06:50:48.666Z,23.63
2023-02-03T06:53:15.549Z,31.02
2023-02-03T06:55:42.314Z,21.20
2023-02-03T06:58:12.400Z,26.33
2023-02-03T07:00:39.019Z,25.25
2023-02-03T07:03:07.347Z,26.27
2023-02-03T07:05:40.827Z,32.63
2023-02-03T07:08:16.744Z,32.20
2023-02-03T07:10:43.375Z,28.88
2023-02-03T07:13:12.802Z,35.15
2023-02-03T07:15:42.750Z,34.00
2023-02-03T07:18:14.981Z,37.53
2023-02-03T07:20:44.571Z,42.67
2023-02-03T07:23:14.234Z,44.63
2023-02-03T07:25:43.902Z,34.03
2023-02-03T07:28:14.301Z,32.92
2023-02-03T07:30:41.023Z,34.00
2023-02-03T07:33:08.065Z,38.70
2023-02-03T07:38:22.205Z,36.63
2023-02-03T07:41:01.015Z,46.70
2023-02-03T07:43:38.391Z,35.90
2023-02-03T07:46:05.189Z,39.00
2023-02-03T07:48:38.116Z,44.42
2023-02-03T07:51:05.067Z,47.78
2023-02-03T07:53:35.156Z,49.33
2023-02-03T07:56:04.722Z,40.42
2023-02-03T07:58:35.953Z,38.22
2023-02-03T08:01:09.429Z,50.53
2023-02-03T08:03:39.654Z,45.72
2023-02-03T08:08:50.656Z,44.05
2023-02-03T08:11:22.012Z,37.72
2023-02-03T08:13:51.370Z,39.08
2023-02-03T08:16:33.078Z,45.95
2023-02-03T08:19:02.748Z,47.50
2023-02-03T08:21:29.439Z,38.97
2023-02-03T08:24:00.246Z,41.65
2023-02-03T08:26:26.884Z,38.42
2023-02-03T08:28:58.607Z,50.47
2023-02-03T08:31:25.436Z,37.15
2023-02-03T08:33:52.230Z,45.00
2023-02-03T08:36:19.096Z,43.03
2023-02-03T08:38:49.562Z,48.55
2023-02-03T08:41:18.221Z,44.70
2023-02-03T08:43:45.738Z,41.63
2023-02-03T08:46:18.339Z,44.30
2023-02-03T08:48:53.360Z,44.40
2023-02-03T08:54:06.547Z,52.13
2023-02-03T08:56:48.080Z,48.85
2023-02-03T08:59:17.230Z,55.22
2023-02-03T09:04:38.162Z,55.90
2023-02-03T09:07:04.919Z,51.15
2023-02-03T09:09:32.283Z,48.40
2023-02-03T09:12:05.792Z,61.80
2023-02-03T09:14:33.660Z,61.03
2023-02-03T09:17:14.828Z,58.72
2023-02-03T09:19:42.314Z,63.95
2023-02-03T09:22:11.554Z,62.83
2023-02-03T09:24:48.176Z,62.50
2023-02-03T09:27:15.099Z,78.50
2023-02-03T09:29:47.001Z,74.40
2023-02-03T09:32:16.784Z,72.10
2023-02-03T09:34:47.200Z,60.95
2023-02-03T09:37:37.098Z,60.13
2023-02-03T09:40:04.174Z,53.63
2023-02-03T09:43:20.510Z,59.38
2023-02-03T09:46:02.919Z,43.95
2023-02-03T09:49:24.913Z,46.83
2023-02-03T09:52:13.948Z,42.30
2023-02-03T09:55:11.591Z,47.70
2023-02-03T09:57:46.739Z,40.38
2023-02-03T10:00:38.174Z,49.83
2023-02-03T10:03:16.150Z,39.30
2023-02-03T10:06:01.075Z,51.58
2023-02-03T10:09:18.328Z,50.15
2023-02-03T10:12:14.661Z,50.95
2023-02-03T10:15:03.157Z,55.67
2023-02-03T10:18:09.715Z,51.58
2023-02-03T10:21:01.013Z,50.95
2023-02-03T10:23:42.615Z,56.25
2023-02-03T10:26:17.474Z,61.70
2023-02-03T10:29:34.257Z,67.90
2023-02-03T10:32:24.483Z,71.68
2023-02-03T10:35:16.955Z,64.80
2023-02-03T10:37:54.206Z,83.68
2023-02-03T10:40:37.700Z,79.65
2023-02-03T10:43:27.214Z,80.60
2023-02-03T10:45:54.581Z,88.80
2023-02-03T10:48:27.998Z,77.68
2023-02-03T10:51:07.527Z,84.63
2023-02-03T10:53:37.441Z,85.97
2023-02-03T10:56:19.794Z,83.75
2023-02-03T10:58:59.438Z,83.57
2023-02-03T11:01:48.105Z,74.65
2023-02-03T11:04:38.150Z,87.53
2023-02-03T11:07:36.061Z,90.20
2023-02-03T11:10:27.463Z,89.82
2023-02-03T11:13:24.520Z,83.65
2023-02-03T11:16:01.175Z,91.45
2023-02-03T11:18:52.697Z,89.20
2023-02-03T11:21:30.552Z,94.60
2023-02-03T11:24:21.474Z,99.13
2023-02-03T11:27:02.637Z,103.43
2023-02-03T11:29:32.153Z,106.07
2023-02-03T11:32:05.765Z,117.50
2023-02-03T11:37:42.234Z,115.50
2023-02-03T11:40:08.968Z,109.82
2023-02-03T11:42:38.012Z,119.50
2023-02-03T11:45:28.146Z,111.40
2023-02-03T11:48:05.940Z,115.25
2023-02-03T11:50:41.600Z,117.68
2023-02-03T11:53:08.222Z,110.60
2023-02-03T11:56:15.414Z,121.65
2023-02-03T11:59:10.246Z,112.90
2023-02-03T12:02:09.933Z,115.47
2023-02-03T12:05:13.880Z,126.75
2023-02-03T12:08:18.258Z,121.47
2023-02-03T12:11:14.185Z,133.02
2023-02-03T12:14:04.723Z,129.52
2023-02-03T12:16:38.425Z,143.43
2023-02-03T12:19:41.702Z,137.55
2023-02-03T12:22:36.273Z,146.07
2023-02-03T12:25:40.657Z,135.88
2023-02-03T12:28:23.737Z,139.10
2023-02-03T12:31:10.435Z,136.63
2023-02-03T12:33:59.618Z,151.85
2023-02-03T12:36:51.328Z,128.85
2023-02-03T12:39:28.527Z,136.30
2023-02-03T12:42:37.972Z,138.32
2023-02-03T12:45:41.115Z,135.32
2023-02-03T12:48:24.109Z,143.00
2023-02-03T12:51:01.471Z,136.05
2023-02-03T12:53:36.574Z,137.45
2023-02-03T12:56:05.299Z,124.28
2023-02-03T12:58:43.251Z,133.48
2023-02-03T13:01:29.727Z,128.15
2023-02-03T13:04:08.821Z,121.05
2023-02-03T13:07:21.819Z,121.25
2023-02-03T13:10:01.206Z,111.22
2023-02-03T13:12:51.712Z,116.07
2023-02-03T13:15:54.426Z,106.05
2023-02-03T13:18:21.710Z,103.63
2023-02-03T13:23:43.158Z,99.60
2023-02-03T13:26:28.078Z,97.03
2023-02-03T13:29:07.042Z,98.80
2023-02-03T13:31:46.259Z,98.55
2023-02-03T13:34:21.118Z,92.38
2023-02-03T13:37:36.317Z,96.20
2023-02-03T13:40:21.147Z,90.55
2023-02-03T13:43:04.998Z,90.32
2023-02-03T13:45:49.650Z,93.22
2023-02-03T13:48:33.814Z,77.85
2023-02-03T13:51:21.900Z,86.40
2023-02-03T13:53:51.038Z,78.60
2023-02-03T13:56:26.285Z,83.03
2023-02-03T13:59:22.846Z,70.57
2023-02-03T14:01:49.762Z,72.35
2023-02-03T14:04:31.540Z,77.13
2023-02-03T14:07:03.447Z,67.15
2023-02-03T14:09:36.101Z,63.67
2023-02-03T14:12:15.116Z,56.13
2023-02-03T14:14:45.818Z,61.17
2023-02-03T14:17:47.158Z,67.88
2023-02-03T14:20:39.146Z,55.92
2023-02-03T14:23:05.697Z,56.47
2023-02-03T14:25:45.816Z,54.38
2023-02-03T14:28:23.078Z,64.07
2023-02-03T14:31:07.070Z,60.22
2023-02-03T14:33:49.332Z,69.70
2023-02-03T14:39:55.284Z,67.30
2023-02-03T14:42:29.629Z,67.28
2023-02-03T14:44:56.259Z,71.80
2023-02-03T14:47:44.704Z,68.22
2023-02-03T14:50:34.173Z,79.10
2023-02-03T14:53:28.304Z,88.20
2023-02-03T14:56:13.929Z,80.55
2023-02-03T15:01:36.592Z,86.57
2023-02-03T15:04:12.560Z,86.10
2023-02-03T15:06:48.549Z,96.45
2023-02-03T15:09:48.465Z,79.85
2023-02-03T15:12:19.726Z,86.45
2023-02-03T15:14:49.380Z,102.03
2023-02-03T15:17:28.193Z,87.97
2023-02-03T15:19:56.343Z,91.90
2023-02-03T15:22:29.124Z,90.03
2023-02-03T15:24:59.543Z,91.88
2023-02-03T15:27:36.349Z,88.43
2023-02-03T15:30:28.997Z,94.55
2023-02-03T15:33:08.171Z,92.18
2023-02-03T15:35:37.850Z,94.90
2023-02-03T15:38:32.248Z,94.80
2023-02-03T15:43:56.669Z,104.93
2023-02-03T15:46:28.506Z,98.88
2023-02-03T15:49:17.971Z,99.32
2023-02-03T15:51:59.619Z,103.07
2023-02-03T15:54:43.327Z,97.05
2023-02-03T15:57:23.325Z,102.43
2023-02-03T16:00:57.630Z,99.45
2023-02-03T16:03:41.375Z,89.47
2023-02-03T16:06:25.424Z,99.53
2023-02-03T16:08:59.917Z,92.10
2023-02-03T16:11:37.133Z,89.15
2023-02-03T16:14:14.261Z,100.18
2023-02-03T16:17:04.258Z,94.50
2023-02-03T16:19:38.651Z,105.88
2023-02-03T16:22:25.614Z,99.60
2023-02-03T16:24:57.290Z,102.13
2023-02-03T16:27:30.547Z,98.65
2023-02-03T16:30:25.250Z,100.07
2023-02-03T16:33:35.846Z,95.22
2023-02-03T16:36:49.222Z,100.50
2023-02-03T16:39:43.240Z,107.63
2023-02-03T16:42:42.916Z,108.22
2023-02-03T16:45:41.268Z,106.50
2023-02-03T16:48:38.653Z,102.95
2023-02-03T16:51:37.902Z,109.43
2023-02-03T16:54:06.351Z,107.32
2023-02-03T16:56:35.473Z,107.55
2023-02-03T16:59:10.175Z,122.07
2023-02-03T17:02:05.225Z,113.22
2023-02-03T17:04:32.034Z,111.55
2023-02-03T17:06:58.652Z,111.25
2023-02-03T17:09:25.335Z,113.78
2023-02-03T17:12:09.609Z,111.43
2023-02-03T17:14:36.219Z,117.07
2023-02-03T17:20:01.635Z,129.90
2023-02-03T17:22:30.655Z,115.03
2023-02-03T17:25:04.697Z,118.68
2023-02-03T17:27:31.462Z,110.70
2023-02-03T17:29:58.197Z,123.68
2023-02-03T17:32:25.355Z,114.70
2023-02-03T17:34:58.949Z,115.68
2023-02-03T17:37:25.684Z,113.07
2023-02-03T17:53:50.926Z,115.53
2023-02-03T17:56:36.016Z,111.57
2023-02-03T17:59:05.053Z,115.45
2023-02-03T18:01:33.403Z,126.65
2023-02-03T18:04:24.157Z,114.00
2023-02-03T18:06:50.848Z,106.85
2023-02-03T18:09:23.393Z,113.05
2023-02-03T18:12:14.558Z,110.82
2023-02-03T18:14:41.268Z,110.40
2023-02-03T18:17:14.711Z,113.57
2023-02-03T18:19:46.629Z,110.18
2023-02-03T18:22:15.830Z,113.68
2023-02-03T18:24:45.047Z,105.63
2023-02-03T18:27:22.734Z,121.03
2023-02-03T18:29:52.277Z,108.20
2023-02-03T18:32:20.123Z,108.78
2023-02-03T18:34:47.392Z,102.72
2023-02-03T18:37:14.369Z,106.80
2023-02-03T18:39:41.239Z,99.80
2023-02-03T18:42:08.587Z,100.57
2023-02-03T18:44:35.888Z,103.20
2023-02-03T18:47:09.001Z,104.90
2023-02-03T18:49:37.178Z,110.65
2023-02-03T18:52:08.046Z,103.32
2023-02-03T18:54:42.794Z,102.53
2023-02-03T18:57:13.097Z,101.30
2023-02-03T18:59:40.071Z,104.63
2023-02-03T19:02:07.436Z,108.10
2023-02-03T19:04:34.351Z,113.05
2023-02-03T19:07:01.132Z,108.18
2023-02-03T19:09:30.639Z,107.80
2023-02-03T19:11:58.970Z,109.90
2023-02-03T19:14:26.313Z,112.32
2023-02-03T19:16:53.243Z,100.88
2023-02-03T19:19:28.599Z,108.15
2023-02-03T19:21:58.850Z,105.97
2023-02-03T19:24:31.338Z,98.25
2023-02-03T19:26:58.097Z,105.43
2023-02-03T19:29:24.946Z,95.20
2023-02-03T19:31:51.897Z,87.82
2023-02-03T19:34:18.999Z,87.43
2023-02-03T19:36:47.256Z,77.35
2023-02-03T19:39:14.633Z,78.93
2023-02-03T19:41:41.831Z,79.88
2023-02-03T19:44:08.632Z,90.93
2023-02-03T19:46:37.540Z,73.15
2023-02-03T19:49:11.104Z,79.80
2023-02-03T19:51:38.304Z,70.90
2023-02-03T19:54:07.574Z,67.47
2023-02-03T19:56:39.763Z,75.80
2023-02-03T19:59:07.201Z,68.22
2023-02-03T20:01:34.652Z,74.55
2023-02-03T20:04:01.613Z,72.00
2023-02-03T20:06:35.693Z,62.05
2023-02-03T20:09:04.892Z,59.30
2023-02-03T20:11:35.239Z,65.13
2023-02-03T20:14:05.578Z,61.78
2023-02-03T20:16:32.427Z,51.65
2023-02-03T20:19:02.588Z,44.92
2023-02-03T20:21:30.636Z,43.55
2023-02-03T20:23:58.715Z,32.22
2023-02-03T20:26:28.501Z,28.13
2023-02-03T20:29:02.327Z,28.80
2023-02-03T20:31:32.100Z,27.52
2023-02-03T20:34:00.799Z,22.85
2023-02-03T20:36:27.958Z,26.90
2023-02-03T20:39:01.148Z,22.33
2023-02-03T20:41:33.854Z,20.75
2023-02-03T20:44:10.956Z,25.02
2023-02-03T20:46:39.722Z,26.02
2023-02-03T20:49:20.085Z,24.38
2023-02-03T20:51:51.033Z,19.92
2023-02-03T20:54:24.709Z,15.88
2023-02-03T20:56:51.629Z,14.73
2023-02-03T20:59:19.760Z,13.23
2023-02-03T21:01:49.708Z,14.63
2023-02-03T21:04:42.743Z,19.92
2023-02-03T21:07:25.692Z,11.77
2023-02-03T21:10:05.582Z,12.82
2023-02-03T21:12:33.773Z,10.82
2023-02-03T21:15:04.174Z,15.82
2023-02-03T21:17:44.684Z,11.88
2023-02-03T21:20:32.803Z,15.52
2023-02-03T21:23:01.842Z,9.10
2023-02-03T21:25:32.212Z,12.43
2023-02-03T21:28:02.367Z,15.70
2023-02-03T21:30:45.328Z,12.18
2023-02-03T21:33:51.716Z,10.20
2023-02-03T21:36:40.497Z,12.88
2023-02-03T21:39:28.867Z,9.90
2023-02-03T21:41:57.327Z,9.18
2023-02-03T21:44:34.306Z,11.48
2023-02-03T21:47:28.398Z,11.65
2023-02-03T21:49:56.426Z,14.18
2023-02-03T21:52:29.165Z,16.73
2023-02-03T21:55:00.428Z,11.18
2023-02-03T21:57:27.371Z,12.88
2023-02-03T21:59:54.111Z,14.05
2023-02-03T22:02:42.764Z,18.77
2023-02-03T22:05:16.954Z,15.05
2023-02-03T22:07:50.684Z,16.25
2023-02-03T22:10:21.957Z,17.33
2023-02-03T22:12:53.911Z,12.90
2023-02-03T22:15:24.005Z,17.13
2023-02-03T22:17:51.112Z,12.93
2023-02-03T22:20:18.105Z,15.63
2023-02-03T22:22:50.772Z,11.55
2023-02-03T22:25:17.556Z,12.98
2023-02-03T22:27:44.273Z,13.82
2023-02-03T22:30:14.850Z,21.38
2023-02-03T22:32:44.998Z,18.75
2023-02-03T22:35:12.827Z,23.17
2023-02-03T22:37:39.857Z,19.27
2023-02-03T22:40:07.388Z,20.42
2023-02-03T22:42:37.274Z,23.50
2023-02-03T22:45:15.084Z,27.23
2023-02-03T22:47:41.939Z,18.20
2023-02-03T22:50:12.066Z,20.85
2023-02-03T22:52:44.108Z,22.52
2023-02-03T22:57:41.950Z,24.27
2023-02-03T23:00:11.068Z,34.90
2023-02-03T23:02:41.166Z,41.63
2023-02-03T23:05:09.763Z,37.53
2023-02-03T23:07:39.736Z,39.10
2023-02-03T23:10:17.529Z,44.92
2023-02-03T23:12:44.586Z,38.88
2023-02-03T23:15:17.045Z,35.33
2023-02-03T23:17:46.994Z,33.55
2023-02-03T23:20:18.055Z,36.60
2023-02-03T23:22:51.096Z,38.50
2023-02-03T23:25:17.987Z,35.88
2023-02-03T23:27:44.853Z,40.55
2023-02-03T23:30:14.886Z,39.72
2023-02-03T23:32:44.703Z,30.50
2023-02-03T23:35:35.922Z,39.63
2023-02-03T23:38:10.513Z,35.67
2023-02-03T23:40:37.217Z,39.85
2023-02-03T23:43:03.956Z,38.85
2023-02-03T23:45:34.318Z,36.15
2023-02-03T23:48:09.677Z,39.55
2023-02-03T23:50:36.847Z,35.90
2023-02-03T23:53:06.989Z,33.05
2023-02-03T23:55:33.628Z,36.55
2023-02-03T23:58:08.680Z,36.08
